sensor_id;sensor_type;location;lat;lon;timestamp;P1;durP1;ratioP1;P2;durP2;ratioP2
42018;SDS011;27703;51.980;5.848;2023-08-08T00:00:37;2.15;;;0.50;;
42018;SDS011;27703;51.980;5.848;2023-08-08T00:03:03;2.53;;;0.70;;
42018;SDS011;27703;51.980;5.848;2023-08-08T00:05:28;2.88;;;0.70;;
42018;SDS011;27703;51.980;5.848;2023-08-08T00:07:54;2.58;;;0.65;;
42018;SDS011;27703;51.980;5.848;2023-08-08T00:10:19;3.00;;;0.60;;
42018;SDS011;27703;51.980;5.848;2023-08-08T00:12:45;1.50;;;0.70;;
42018;SDS011;27703;51.980;5.848;2023-08-08T00:15:11;1.90;;;0.77;;
42018;SDS011;27703;51.980;5.848;2023-08-08T00:17:36;3.17;;;0.70;;
42018;SDS011;27703;51.980;5.848;2023-08-08T00:20:02;2.33;;;0.73;;
42018;SDS011;27703;51.980;5.848;2023-08-08T00:22:28;3.45;;;0.75;;
42018;SDS011;27703;51.980;5.848;2023-08-08T00:24:54;2.53;;;0.70;;
42018;SDS011;27703;51.980;5.848;2023-08-08T00:27:19;1.60;;;0.70;;
42018;SDS011;27703;51.980;5.848;2023-08-08T00:29:45;2.08;;;0.82;;
42018;SDS011;27703;51.980;5.848;2023-08-08T00:32:11;1.58;;;0.60;;
42018;SDS011;27703;51.980;5.848;2023-08-08T00:34:37;3.35;;;0.65;;
42018;SDS011;27703;51.980;5.848;2023-08-08T00:37:05;4.78;;;1.30;;
42018;SDS011;27703;51.980;5.848;2023-08-08T00:39:31;2.65;;;0.90;;
42018;SDS011;27703;51.980;5.848;2023-08-08T00:41:56;2.80;;;1.13;;
42018;SDS011;27703;51.980;5.848;2023-08-08T00:44:22;4.40;;;1.27;;
42018;SDS011;27703;51.980;5.848;2023-08-08T00:46:47;4.30;;;1.02;;
42018;SDS011;27703;51.980;5.848;2023-08-08T00:49:13;3.13;;;0.90;;
42018;SDS011;27703;51.980;5.848;2023-08-08T00:51:39;2.35;;;0.70;;
42018;SDS011;27703;51.980;5.848;2023-08-08T00:54:05;1.42;;;0.63;;
42018;SDS011;27703;51.980;5.848;2023-08-08T00:56:31;4.03;;;1.02;;
42018;SDS011;27703;51.980;5.848;2023-08-08T00:58:57;2.65;;;1.00;;
42018;SDS011;27703;51.980;5.848;2023-08-08T01:01:23;2.70;;;0.88;;
42018;SDS011;27703;51.980;5.848;2023-08-08T01:03:48;2.80;;;0.93;;
42018;SDS011;27703;51.980;5.848;2023-08-08T01:09:09;3.90;;;0.95;;
42018;SDS011;27703;51.980;5.848;2023-08-08T01:11:40;1.27;;;0.60;;
42018;SDS011;27703;51.980;5.848;2023-08-08T01:14:07;3.00;;;0.80;;
42018;SDS011;27703;51.980;5.848;2023-08-08T01:16:34;1.70;;;0.85;;
42018;SDS011;27703;51.980;5.848;2023-08-08T01:18:59;5.80;;;1.30;;
42018;SDS011;27703;51.980;5.848;2023-08-08T01:21:27;3.50;;;0.88;;
42018;SDS011;27703;51.980;5.848;2023-08-08T01:24:00;1.35;;;0.60;;
42018;SDS011;27703;51.980;5.848;2023-08-08T01:26:40;2.08;;;0.65;;
42018;SDS011;27703;51.980;5.848;2023-08-08T01:29:06;5.35;;;0.60;;
42018;SDS011;27703;51.980;5.848;2023-08-08T01:31:32;4.53;;;1.05;;
42018;SDS011;27703;51.980;5.848;2023-08-08T01:33:57;3.70;;;0.80;;
42018;SDS011;27703;51.980;5.848;2023-08-08T01:36:25;4.40;;;0.80;;
42018;SDS011;27703;51.980;5.848;2023-08-08T01:38:56;4.97;;;1.23;;
42018;SDS011;27703;51.980;5.848;2023-08-08T01:41:29;2.97;;;0.90;;
42018;SDS011;27703;51.980;5.848;2023-08-08T01:43:57;4.53;;;0.85;;
42018;SDS011;27703;51.980;5.848;2023-08-08T01:46:24;2.28;;;0.60;;
42018;SDS011;27703;51.980;5.848;2023-08-08T01:48:50;2.78;;;0.50;;
42018;SDS011;27703;51.980;5.848;2023-08-08T01:51:15;2.53;;;0.60;;
42018;SDS011;27703;51.980;5.848;2023-08-08T01:53:41;3.58;;;0.60;;
42018;SDS011;27703;51.980;5.848;2023-08-08T01:56:07;4.13;;;1.02;;
42018;SDS011;27703;51.980;5.848;2023-08-08T01:58:33;2.55;;;0.45;;
42018;SDS011;27703;51.980;5.848;2023-08-08T02:00:58;2.72;;;0.73;;
42018;SDS011;27703;51.980;5.848;2023-08-08T02:03:24;3.92;;;0.77;;
42018;SDS011;27703;51.980;5.848;2023-08-08T02:05:50;1.95;;;0.70;;
42018;SDS011;27703;51.980;5.848;2023-08-08T02:08:15;7.30;;;1.35;;
42018;SDS011;27703;51.980;5.848;2023-08-08T02:10:41;4.22;;;0.65;;
42018;SDS011;27703;51.980;5.848;2023-08-08T02:13:07;2.88;;;0.52;;
42018;SDS011;27703;51.980;5.848;2023-08-08T02:15:32;1.70;;;0.50;;
42018;SDS011;27703;51.980;5.848;2023-08-08T02:17:59;1.85;;;0.52;;
42018;SDS011;27703;51.980;5.848;2023-08-08T02:20:25;1.77;;;0.80;;
42018;SDS011;27703;51.980;5.848;2023-08-08T02:22:50;1.20;;;0.40;;
42018;SDS011;27703;51.980;5.848;2023-08-08T02:25:16;2.30;;;0.68;;
42018;SDS011;27703;51.980;5.848;2023-08-08T02:27:42;1.50;;;0.68;;
42018;SDS011;27703;51.980;5.848;2023-08-08T02:30:07;3.42;;;0.90;;
42018;SDS011;27703;51.980;5.848;2023-08-08T02:32:33;1.48;;;0.50;;
42018;SDS011;27703;51.980;5.848;2023-08-08T02:34:59;2.90;;;0.70;;
42018;SDS011;27703;51.980;5.848;2023-08-08T02:37:24;3.67;;;0.65;;
42018;SDS011;27703;51.980;5.848;2023-08-08T02:39:50;3.13;;;0.70;;
42018;SDS011;27703;51.980;5.848;2023-08-08T02:42:15;3.20;;;0.70;;
42018;SDS011;27703;51.980;5.848;2023-08-08T02:44:41;2.47;;;0.80;;
42018;SDS011;27703;51.980;5.848;2023-08-08T02:47:07;1.95;;;0.50;;
42018;SDS011;27703;51.980;5.848;2023-08-08T02:49:32;7.03;;;1.20;;
42018;SDS011;27703;51.980;5.848;2023-08-08T02:51:58;2.25;;;0.95;;
42018;SDS011;27703;51.980;5.848;2023-08-08T02:54:24;2.10;;;0.70;;
42018;SDS011;27703;51.980;5.848;2023-08-08T02:56:50;4.35;;;1.13;;
42018;SDS011;27703;51.980;5.848;2023-08-08T02:59:16;2.33;;;0.77;;
42018;SDS011;27703;51.980;5.848;2023-08-08T03:01:41;2.65;;;0.80;;
42018;SDS011;27703;51.980;5.848;2023-08-08T03:04:07;3.42;;;0.70;;
42018;SDS011;27703;51.980;5.848;2023-08-08T03:06:33;3.88;;;0.77;;
42018;SDS011;27703;51.980;5.848;2023-08-08T03:08:58;1.88;;;0.50;;
42018;SDS011;27703;51.980;5.848;2023-08-08T03:11:24;3.88;;;0.60;;
42018;SDS011;27703;51.980;5.848;2023-08-08T03:13:49;2.22;;;0.50;;
42018;SDS011;27703;51.980;5.848;2023-08-08T03:16:15;3.60;;;0.60;;
42018;SDS011;27703;51.980;5.848;2023-08-08T03:18:41;3.88;;;0.73;;
42018;SDS011;27703;51.980;5.848;2023-08-08T03:21:06;3.92;;;0.70;;
42018;SDS011;27703;51.980;5.848;2023-08-08T03:23:32;3.17;;;0.70;;
42018;SDS011;27703;51.980;5.848;2023-08-08T03:25:57;3.58;;;1.27;;
42018;SDS011;27703;51.980;5.848;2023-08-08T03:28:23;7.22;;;1.45;;
42018;SDS011;27703;51.980;5.848;2023-08-08T03:30:49;2.65;;;1.15;;
42018;SDS011;27703;51.980;5.848;2023-08-08T03:33:14;3.53;;;1.27;;
42018;SDS011;27703;51.980;5.848;2023-08-08T03:35:40;6.40;;;2.03;;
42018;SDS011;27703;51.980;5.848;2023-08-08T03:38:06;8.50;;;1.67;;
42018;SDS011;27703;51.980;5.848;2023-08-08T03:40:32;5.57;;;1.70;;
42018;SDS011;27703;51.980;5.848;2023-08-08T03:42:58;2.10;;;1.00;;
42018;SDS011;27703;51.980;5.848;2023-08-08T03:45:23;3.15;;;1.23;;
42018;SDS011;27703;51.980;5.848;2023-08-08T03:47:49;6.20;;;1.33;;
42018;SDS011;27703;51.980;5.848;2023-08-08T03:50:14;3.20;;;1.33;;
42018;SDS011;27703;51.980;5.848;2023-08-08T03:52:40;5.40;;;1.48;;
42018;SDS011;27703;51.980;5.848;2023-08-08T03:55:06;3.55;;;1.17;;
42018;SDS011;27703;51.980;5.848;2023-08-08T03:57:31;8.57;;;1.80;;
42018;SDS011;27703;51.980;5.848;2023-08-08T03:59:57;9.20;;;2.28;;
42018;SDS011;27703;51.980;5.848;2023-08-08T04:02:23;5.75;;;1.70;;
42018;SDS011;27703;51.980;5.848;2023-08-08T04:04:49;4.75;;;2.63;;
42018;SDS011;27703;51.980;5.848;2023-08-08T04:07:15;8.32;;;2.72;;
42018;SDS011;27703;51.980;5.848;2023-08-08T04:09:41;5.28;;;1.85;;
42018;SDS011;27703;51.980;5.848;2023-08-08T04:12:07;4.35;;;1.80;;
42018;SDS011;27703;51.980;5.848;2023-08-08T04:14:33;3.85;;;1.83;;
42018;SDS011;27703;51.980;5.848;2023-08-08T04:16:58;4.38;;;1.30;;
42018;SDS011;27703;51.980;5.848;2023-08-08T04:19:24;6.10;;;1.85;;
42018;SDS011;27703;51.980;5.848;2023-08-08T04:21:50;3.80;;;1.42;;
42018;SDS011;27703;51.980;5.848;2023-08-08T04:24:15;7.65;;;2.42;;
42018;SDS011;27703;51.980;5.848;2023-08-08T04:26:41;9.77;;;2.60;;
42018;SDS011;27703;51.980;5.848;2023-08-08T04:29:06;4.63;;;1.52;;
42018;SDS011;27703;51.980;5.848;2023-08-08T04:31:32;6.70;;;1.70;;
42018;SDS011;27703;51.980;5.848;2023-08-08T04:33:58;5.75;;;1.70;;
42018;SDS011;27703;51.980;5.848;2023-08-08T04:36:26;6.03;;;1.55;;
42018;SDS011;27703;51.980;5.848;2023-08-08T04:38:52;5.93;;;2.28;;
42018;SDS011;27703;51.980;5.848;2023-08-08T04:41:18;4.03;;;1.98;;
42018;SDS011;27703;51.980;5.848;2023-08-08T04:43:44;4.53;;;1.60;;
42018;SDS011;27703;51.980;5.848;2023-08-08T04:46:10;3.10;;;1.73;;
42018;SDS011;27703;51.980;5.848;2023-08-08T04:48:36;5.22;;;1.90;;
42018;SDS011;27703;51.980;5.848;2023-08-08T04:51:04;4.70;;;2.17;;
42018;SDS011;27703;51.980;5.848;2023-08-08T04:53:30;7.53;;;1.98;;
42018;SDS011;27703;51.980;5.848;2023-08-08T04:55:56;5.75;;;2.45;;
42018;SDS011;27703;51.980;5.848;2023-08-08T04:58:21;6.40;;;2.85;;
42018;SDS011;27703;51.980;5.848;2023-08-08T05:00:47;7.68;;;2.22;;
42018;SDS011;27703;51.980;5.848;2023-08-08T05:03:12;5.97;;;2.15;;
42018;SDS011;27703;51.980;5.848;2023-08-08T05:05:38;5.43;;;1.58;;
42018;SDS011;27703;51.980;5.848;2023-08-08T05:08:04;8.82;;;2.50;;
42018;SDS011;27703;51.980;5.848;2023-08-08T05:10:29;8.93;;;2.30;;
42018;SDS011;27703;51.980;5.848;2023-08-08T05:12:56;6.30;;;1.58;;
42018;SDS011;27703;51.980;5.848;2023-08-08T05:15:22;5.20;;;2.58;;
42018;SDS011;27703;51.980;5.848;2023-08-08T05:17:47;5.20;;;1.92;;
42018;SDS011;27703;51.980;5.848;2023-08-08T05:20:13;4.93;;;2.15;;
42018;SDS011;27703;51.980;5.848;2023-08-08T05:22:38;4.15;;;2.15;;
42018;SDS011;27703;51.980;5.848;2023-08-08T05:25:04;4.63;;;2.00;;
42018;SDS011;27703;51.980;5.848;2023-08-08T05:27:30;5.50;;;3.08;;
42018;SDS011;27703;51.980;5.848;2023-08-08T05:29:56;5.53;;;2.05;;
42018;SDS011;27703;51.980;5.848;2023-08-08T05:32:22;4.97;;;2.70;;
42018;SDS011;27703;51.980;5.848;2023-08-08T05:34:47;7.40;;;2.08;;
42018;SDS011;27703;51.980;5.848;2023-08-08T05:37:14;9.85;;;3.03;;
42018;SDS011;27703;51.980;5.848;2023-08-08T05:39:40;6.47;;;2.85;;
42018;SDS011;27703;51.980;5.848;2023-08-08T05:42:05;7.75;;;2.95;;
42018;SDS011;27703;51.980;5.848;2023-08-08T05:44:31;7.00;;;2.72;;
42018;SDS011;27703;51.980;5.848;2023-08-08T05:46:57;8.25;;;3.05;;
42018;SDS011;27703;51.980;5.848;2023-08-08T05:49:22;6.53;;;2.40;;
42018;SDS011;27703;51.980;5.848;2023-08-08T05:51:48;8.90;;;3.22;;
42018;SDS011;27703;51.980;5.848;2023-08-08T05:54:13;5.50;;;2.38;;
42018;SDS011;27703;51.980;5.848;2023-08-08T05:56:39;4.90;;;2.20;;
42018;SDS011;27703;51.980;5.848;2023-08-08T05:59:04;8.38;;;2.40;;
42018;SDS011;27703;51.980;5.848;2023-08-08T06:01:30;10.98;;;2.97;;
42018;SDS011;27703;51.980;5.848;2023-08-08T06:03:57;5.85;;;2.03;;
42018;SDS011;27703;51.980;5.848;2023-08-08T06:06:24;9.82;;;3.20;;
42018;SDS011;27703;51.980;5.848;2023-08-08T06:08:52;5.18;;;2.35;;
42018;SDS011;27703;51.980;5.848;2023-08-08T06:11:18;9.38;;;4.03;;
42018;SDS011;27703;51.980;5.848;2023-08-08T06:13:44;12.30;;;4.35;;
42018;SDS011;27703;51.980;5.848;2023-08-08T06:16:09;10.57;;;2.90;;
42018;SDS011;27703;51.980;5.848;2023-08-08T06:18:35;5.25;;;2.83;;
42018;SDS011;27703;51.980;5.848;2023-08-08T06:21:01;7.10;;;2.13;;
42018;SDS011;27703;51.980;5.848;2023-08-08T06:23:27;7.75;;;2.55;;
42018;SDS011;27703;51.980;5.848;2023-08-08T06:25:52;6.90;;;2.50;;
42018;SDS011;27703;51.980;5.848;2023-08-08T06:28:18;5.28;;;2.58;;
42018;SDS011;27703;51.980;5.848;2023-08-08T06:30:44;7.90;;;2.17;;
42018;SDS011;27703;51.980;5.848;2023-08-08T06:33:09;8.13;;;2.80;;
42018;SDS011;27703;51.980;5.848;2023-08-08T06:35:35;6.95;;;1.40;;
42018;SDS011;27703;51.980;5.848;2023-08-08T06:38:00;8.43;;;2.35;;
42018;SDS011;27703;51.980;5.848;2023-08-08T06:40:26;5.53;;;2.13;;
42018;SDS011;27703;51.980;5.848;2023-08-08T06:42:52;7.00;;;2.60;;
42018;SDS011;27703;51.980;5.848;2023-08-08T06:45:17;9.68;;;2.50;;
42018;SDS011;27703;51.980;5.848;2023-08-08T06:47:44;6.90;;;1.38;;
42018;SDS011;27703;51.980;5.848;2023-08-08T06:50:10;9.55;;;1.80;;
42018;SDS011;27703;51.980;5.848;2023-08-08T06:52:36;7.40;;;1.60;;
42018;SDS011;27703;51.980;5.848;2023-08-08T06:55:01;4.10;;;1.38;;
42018;SDS011;27703;51.980;5.848;2023-08-08T06:57:28;3.70;;;1.15;;
42018;SDS011;27703;51.980;5.848;2023-08-08T06:59:57;4.72;;;1.25;;
42018;SDS011;27703;51.980;5.848;2023-08-08T07:02:23;4.28;;;0.70;;
42018;SDS011;27703;51.980;5.848;2023-08-08T07:04:49;3.17;;;0.70;;
42018;SDS011;27703;51.980;5.848;2023-08-08T07:07:14;3.53;;;0.50;;
42018;SDS011;27703;51.980;5.848;2023-08-08T07:09:40;2.65;;;0.63;;
42018;SDS011;27703;51.980;5.848;2023-08-08T07:12:06;2.58;;;0.50;;
42018;SDS011;27703;51.980;5.848;2023-08-08T07:14:32;2.95;;;0.40;;
42018;SDS011;27703;51.980;5.848;2023-08-08T07:16:58;1.60;;;0.40;;
42018;SDS011;27703;51.980;5.848;2023-08-08T07:19:24;7.88;;;0.30;;
42018;SDS011;27703;51.980;5.848;2023-08-08T07:21:50;5.85;;;0.57;;
42018;SDS011;27703;51.980;5.848;2023-08-08T07:24:16;4.90;;;0.22;;
42018;SDS011;27703;51.980;5.848;2023-08-08T07:26:41;1.65;;;0.25;;
42018;SDS011;27703;51.980;5.848;2023-08-08T07:29:07;2.33;;;0.30;;
42018;SDS011;27703;51.980;5.848;2023-08-08T07:31:33;2.72;;;0.30;;
42018;SDS011;27703;51.980;5.848;2023-08-08T07:33:58;6.95;;;0.32;;
42018;SDS011;27703;51.980;5.848;2023-08-08T07:36:24;3.05;;;0.30;;
42018;SDS011;27703;51.980;5.848;2023-08-08T07:38:50;1.73;;;0.20;;
42018;SDS011;27703;51.980;5.848;2023-08-08T07:41:15;2.47;;;0.30;;
42018;SDS011;27703;51.980;5.848;2023-08-08T07:43:42;1.88;;;0.10;;
42018;SDS011;27703;51.980;5.848;2023-08-08T07:46:08;2.15;;;0.28;;
42018;SDS011;27703;51.980;5.848;2023-08-08T07:48:34;3.78;;;0.40;;
42018;SDS011;27703;51.980;5.848;2023-08-08T07:51:00;2.70;;;0.30;;
42018;SDS011;27703;51.980;5.848;2023-08-08T07:53:25;2.08;;;0.25;;
42018;SDS011;27703;51.980;5.848;2023-08-08T07:55:51;2.08;;;0.30;;
42018;SDS011;27703;51.980;5.848;2023-08-08T07:58:17;0.85;;;0.22;;
42018;SDS011;27703;51.980;5.848;2023-08-08T08:00:42;2.22;;;0.20;;
42018;SDS011;27703;51.980;5.848;2023-08-08T08:03:09;1.55;;;0.10;;
42018;SDS011;27703;51.980;5.848;2023-08-08T08:05:35;0.60;;;0.20;;
42018;SDS011;27703;51.980;5.848;2023-08-08T08:08:01;0.55;;;0.20;;
42018;SDS011;27703;51.980;5.848;2023-08-08T08:10:27;1.02;;;0.10;;
42018;SDS011;27703;51.980;5.848;2023-08-08T08:12:52;1.30;;;0.10;;
42018;SDS011;27703;51.980;5.848;2023-08-08T08:15:22;0.65;;;0.10;;
42018;SDS011;27703;51.980;5.848;2023-08-08T08:17:48;0.57;;;0.10;;
42018;SDS011;27703;51.980;5.848;2023-08-08T08:20:14;2.00;;;0.20;;
42018;SDS011;27703;51.980;5.848;2023-08-08T08:22:40;1.63;;;0.13;;
42018;SDS011;27703;51.980;5.848;2023-08-08T08:25:05;0.55;;;0.08;;
42018;SDS011;27703;51.980;5.848;2023-08-08T08:27:34;2.70;;;0.10;;
42018;SDS011;27703;51.980;5.848;2023-08-08T08:30:00;4.05;;;0.15;;
42018;SDS011;27703;51.980;5.848;2023-08-08T08:32:26;1.38;;;0.20;;
42018;SDS011;27703;51.980;5.848;2023-08-08T08:34:51;0.65;;;0.15;;
42018;SDS011;27703;51.980;5.848;2023-08-08T08:37:17;4.93;;;0.68;;
42018;SDS011;27703;51.980;5.848;2023-08-08T08:39:42;3.00;;;0.20;;
42018;SDS011;27703;51.980;5.848;2023-08-08T08:42:08;2.03;;;0.20;;
42018;SDS011;27703;51.980;5.848;2023-08-08T08:44:36;2.45;;;0.10;;
42018;SDS011;27703;51.980;5.848;2023-08-08T08:47:02;1.17;;;0.10;;
42018;SDS011;27703;51.980;5.848;2023-08-08T08:49:30;2.35;;;0.20;;
42018;SDS011;27703;51.980;5.848;2023-08-08T08:51:57;2.13;;;0.10;;
42018;SDS011;27703;51.980;5.848;2023-08-08T08:54:25;1.38;;;0.20;;
42018;SDS011;27703;51.980;5.848;2023-08-08T08:56:53;3.22;;;0.10;;
42018;SDS011;27703;51.980;5.848;2023-08-08T08:59:18;1.77;;;0.10;;
42018;SDS011;27703;51.980;5.848;2023-08-08T09:01:44;0.95;;;0.10;;
42018;SDS011;27703;51.980;5.848;2023-08-08T09:04:10;2.80;;;0.15;;
42018;SDS011;27703;51.980;5.848;2023-08-08T09:06:37;1.23;;;0.10;;
42018;SDS011;27703;51.980;5.848;2023-08-08T09:09:03;0.52;;;0.10;;
42018;SDS011;27703;51.980;5.848;2023-08-08T09:11:29;1.48;;;0.10;;
42018;SDS011;27703;51.980;5.848;2023-08-08T09:13:56;0.35;;;0.10;;
42018;SDS011;27703;51.980;5.848;2023-08-08T09:16:22;0.60;;;0.08;;
42018;SDS011;27703;51.980;5.848;2023-08-08T09:18:48;1.50;;;0.10;;
42018;SDS011;27703;51.980;5.848;2023-08-08T09:21:13;0.88;;;0.10;;
42018;SDS011;27703;51.980;5.848;2023-08-08T09:23:40;3.25;;;0.10;;
42018;SDS011;27703;51.980;5.848;2023-08-08T09:26:06;0.82;;;0.30;;
42018;SDS011;27703;51.980;5.848;2023-08-08T09:28:31;0.93;;;0.10;;
42018;SDS011;27703;51.980;5.848;2023-08-08T09:30:57;0.77;;;0.03;;
42018;SDS011;27703;51.980;5.848;2023-08-08T09:33:23;0.55;;;0.00;;
42018;SDS011;27703;51.980;5.848;2023-08-08T09:35:48;0.63;;;0.05;;
42018;SDS011;27703;51.980;5.848;2023-08-08T09:38:14;0.65;;;0.10;;
42018;SDS011;27703;51.980;5.848;2023-08-08T09:40:40;0.63;;;0.10;;
42018;SDS011;27703;51.980;5.848;2023-08-08T09:43:06;1.45;;;0.05;;
42018;SDS011;27703;51.980;5.848;2023-08-08T09:45:37;0.20;;;0.08;;
42018;SDS011;27703;51.980;5.848;2023-08-08T09:48:04;1.00;;;0.10;;
42018;SDS011;27703;51.980;5.848;2023-08-08T09:50:33;0.50;;;0.00;;
42018;SDS011;27703;51.980;5.848;2023-08-08T09:53:01;0.82;;;0.20;;
42018;SDS011;27703;51.980;5.848;2023-08-08T09:55:29;0.30;;;0.10;;
42018;SDS011;27703;51.980;5.848;2023-08-08T09:57:55;1.38;;;0.10;;
42018;SDS011;27703;51.980;5.848;2023-08-08T10:00:23;0.73;;;0.10;;
42018;SDS011;27703;51.980;5.848;2023-08-08T10:02:52;0.52;;;0.10;;
42018;SDS011;27703;51.980;5.848;2023-08-08T10:05:18;0.88;;;0.10;;
42018;SDS011;27703;51.980;5.848;2023-08-08T10:07:44;0.95;;;0.10;;
42018;SDS011;27703;51.980;5.848;2023-08-08T10:10:10;1.67;;;0.20;;
42018;SDS011;27703;51.980;5.848;2023-08-08T10:12:37;0.35;;;0.10;;
42018;SDS011;27703;51.980;5.848;2023-08-08T10:15:06;1.38;;;0.10;;
42018;SDS011;27703;51.980;5.848;2023-08-08T10:17:36;0.77;;;0.10;;
42018;SDS011;27703;51.980;5.848;2023-08-08T10:20:03;1.40;;;0.20;;
42018;SDS011;27703;51.980;5.848;2023-08-08T10:22:36;0.50;;;0.05;;
42018;SDS011;27703;51.980;5.848;2023-08-08T10:25:06;0.65;;;0.10;;
42018;SDS011;27703;51.980;5.848;2023-08-08T10:27:33;0.50;;;0.10;;
42018;SDS011;27703;51.980;5.848;2023-08-08T10:30:01;0.20;;;0.00;;
42018;SDS011;27703;51.980;5.848;2023-08-08T10:32:38;1.33;;;0.20;;
42018;SDS011;27703;51.980;5.848;2023-08-08T10:35:05;0.30;;;0.10;;
42018;SDS011;27703;51.980;5.848;2023-08-08T10:37:32;1.58;;;0.10;;
42018;SDS011;27703;51.980;5.848;2023-08-08T10:39:59;0.80;;;0.10;;
42018;SDS011;27703;51.980;5.848;2023-08-08T10:42:26;1.25;;;0.15;;
42018;SDS011;27703;51.980;5.848;2023-08-08T10:45:00;2.05;;;0.30;;
42018;SDS011;27703;51.980;5.848;2023-08-08T10:50:26;1.20;;;0.10;;
42018;SDS011;27703;51.980;5.848;2023-08-08T10:55:19;0.88;;;0.10;;
42018;SDS011;27703;51.980;5.848;2023-08-08T10:58:04;0.32;;;0.10;;
42018;SDS011;27703;51.980;5.848;2023-08-08T11:00:32;0.50;;;0.10;;
42018;SDS011;27703;51.980;5.848;2023-08-08T11:02:59;2.65;;;0.10;;
42018;SDS011;27703;51.980;5.848;2023-08-08T11:05:27;1.67;;;0.20;;
42018;SDS011;27703;51.980;5.848;2023-08-08T11:07:54;1.27;;;0.10;;
42018;SDS011;27703;51.980;5.848;2023-08-08T11:10:20;2.08;;;0.20;;
42018;SDS011;27703;51.980;5.848;2023-08-08T11:12:54;0.40;;;0.10;;
42018;SDS011;27703;51.980;5.848;2023-08-08T11:15:21;1.50;;;0.15;;
42018;SDS011;27703;51.980;5.848;2023-08-08T11:17:48;1.73;;;0.10;;
42018;SDS011;27703;51.980;5.848;2023-08-08T11:20:14;0.57;;;0.10;;
42018;SDS011;27703;51.980;5.848;2023-08-08T11:22:39;0.40;;;0.10;;
42018;SDS011;27703;51.980;5.848;2023-08-08T11:25:05;1.40;;;0.25;;
42018;SDS011;27703;51.980;5.848;2023-08-08T11:27:33;2.38;;;0.20;;
42018;SDS011;27703;51.980;5.848;2023-08-08T11:29:58;0.32;;;0.05;;
42018;SDS011;27703;51.980;5.848;2023-08-08T11:32:27;1.02;;;0.20;;
42018;SDS011;27703;51.980;5.848;2023-08-08T11:34:55;0.55;;;0.00;;
42018;SDS011;27703;51.980;5.848;2023-08-08T11:37:21;1.23;;;0.20;;
42018;SDS011;27703;51.980;5.848;2023-08-08T11:39:48;1.63;;;0.38;;
42018;SDS011;27703;51.980;5.848;2023-08-08T11:42:14;0.45;;;0.10;;
42018;SDS011;27703;51.980;5.848;2023-08-08T11:44:40;1.05;;;0.10;;
42018;SDS011;27703;51.980;5.848;2023-08-08T11:47:07;0.70;;;0.10;;
42018;SDS011;27703;51.980;5.848;2023-08-08T11:49:39;1.85;;;0.15;;
42018;SDS011;27703;51.980;5.848;2023-08-08T11:52:06;0.85;;;0.32;;
42018;SDS011;27703;51.980;5.848;2023-08-08T11:54:32;1.63;;;0.10;;
42018;SDS011;27703;51.980;5.848;2023-08-08T11:56:58;1.98;;;0.10;;
42018;SDS011;27703;51.980;5.848;2023-08-08T11:59:25;3.00;;;0.20;;
42018;SDS011;27703;51.980;5.848;2023-08-08T12:01:51;2.80;;;0.25;;
42018;SDS011;27703;51.980;5.848;2023-08-08T12:04:16;0.40;;;0.10;;
42018;SDS011;27703;51.980;5.848;2023-08-08T12:06:45;0.40;;;0.10;;
42018;SDS011;27703;51.980;5.848;2023-08-08T12:09:11;1.55;;;0.20;;
42018;SDS011;27703;51.980;5.848;2023-08-08T12:11:40;2.47;;;0.10;;
42018;SDS011;27703;51.980;5.848;2023-08-08T12:14:07;1.38;;;0.17;;
42018;SDS011;27703;51.980;5.848;2023-08-08T12:16:38;1.90;;;0.13;;
42018;SDS011;27703;51.980;5.848;2023-08-08T12:19:07;0.40;;;0.20;;
42018;SDS011;27703;51.980;5.848;2023-08-08T12:21:36;2.40;;;0.30;;
42018;SDS011;27703;51.980;5.848;2023-08-08T12:24:01;0.95;;;0.10;;
42018;SDS011;27703;51.980;5.848;2023-08-08T12:26:27;1.75;;;0.20;;
42018;SDS011;27703;51.980;5.848;2023-08-08T12:28:53;1.42;;;0.20;;
42018;SDS011;27703;51.980;5.848;2023-08-08T12:31:19;0.60;;;0.10;;
42018;SDS011;27703;51.980;5.848;2023-08-08T12:33:45;1.75;;;0.20;;
42018;SDS011;27703;51.980;5.848;2023-08-08T12:36:10;0.60;;;0.20;;
42018;SDS011;27703;51.980;5.848;2023-08-08T12:38:36;0.77;;;0.10;;
42018;SDS011;27703;51.980;5.848;2023-08-08T12:41:02;2.15;;;0.20;;
42018;SDS011;27703;51.980;5.848;2023-08-08T12:43:27;0.90;;;0.20;;
42018;SDS011;27703;51.980;5.848;2023-08-08T12:45:53;2.63;;;0.35;;
42018;SDS011;27703;51.980;5.848;2023-08-08T12:48:18;0.50;;;0.10;;
42018;SDS011;27703;51.980;5.848;2023-08-08T12:50:44;2.25;;;0.10;;
42018;SDS011;27703;51.980;5.848;2023-08-08T12:53:10;0.40;;;0.20;;
42018;SDS011;27703;51.980;5.848;2023-08-08T12:55:35;0.77;;;0.20;;
42018;SDS011;27703;51.980;5.848;2023-08-08T12:58:02;2.10;;;0.20;;
42018;SDS011;27703;51.980;5.848;2023-08-08T13:00:28;3.28;;;0.50;;
42018;SDS011;27703;51.980;5.848;2023-08-08T13:02:54;1.38;;;0.10;;
42018;SDS011;27703;51.980;5.848;2023-08-08T13:05:19;0.60;;;0.10;;
42018;SDS011;27703;51.980;5.848;2023-08-08T13:07:45;0.73;;;0.20;;
42018;SDS011;27703;51.980;5.848;2023-08-08T13:10:11;2.38;;;0.15;;
42018;SDS011;27703;51.980;5.848;2023-08-08T13:12:36;0.40;;;0.10;;
42018;SDS011;27703;51.980;5.848;2023-08-08T13:15:03;0.30;;;0.10;;
42018;SDS011;27703;51.980;5.848;2023-08-08T13:17:28;0.45;;;0.10;;
42018;SDS011;27703;51.980;5.848;2023-08-08T13:19:54;1.17;;;0.10;;
42018;SDS011;27703;51.980;5.848;2023-08-08T13:22:20;0.63;;;0.10;;
42018;SDS011;27703;51.980;5.848;2023-08-08T13:24:45;0.65;;;0.13;;
42018;SDS011;27703;51.980;5.848;2023-08-08T13:27:11;0.35;;;0.10;;
42018;SDS011;27703;51.980;5.848;2023-08-08T13:29:36;0.95;;;0.20;;
42018;SDS011;27703;51.980;5.848;2023-08-08T13:32:02;2.47;;;0.20;;
42018;SDS011;27703;51.980;5.848;2023-08-08T13:34:28;1.42;;;0.30;;
42018;SDS011;27703;51.980;5.848;2023-08-08T13:36:54;2.00;;;0.20;;
42018;SDS011;27703;51.980;5.848;2023-08-08T13:39:19;0.68;;;0.20;;
42018;SDS011;27703;51.980;5.848;2023-08-08T13:41:45;1.55;;;0.20;;
42018;SDS011;27703;51.980;5.848;2023-08-08T13:44:11;0.47;;;0.10;;
42018;SDS011;27703;51.980;5.848;2023-08-08T13:46:36;2.83;;;0.20;;
42018;SDS011;27703;51.980;5.848;2023-08-08T13:49:02;1.35;;;0.20;;
42018;SDS011;27703;51.980;5.848;2023-08-08T13:51:27;0.73;;;0.10;;
42018;SDS011;27703;51.980;5.848;2023-08-08T13:53:53;2.00;;;0.20;;
42018;SDS011;27703;51.980;5.848;2023-08-08T13:56:19;1.75;;;0.20;;
42018;SDS011;27703;51.980;5.848;2023-08-08T13:58:45;0.95;;;0.20;;
42018;SDS011;27703;51.980;5.848;2023-08-08T14:01:11;1.40;;;0.20;;
42018;SDS011;27703;51.980;5.848;2023-08-08T14:03:36;0.73;;;0.20;;
42018;SDS011;27703;51.980;5.848;2023-08-08T14:06:02;0.77;;;0.20;;
42018;SDS011;27703;51.980;5.848;2023-08-08T14:08:28;0.50;;;0.20;;
42018;SDS011;27703;51.980;5.848;2023-08-08T14:10:53;1.85;;;0.20;;
42018;SDS011;27703;51.980;5.848;2023-08-08T14:13:19;1.05;;;0.20;;
42018;SDS011;27703;51.980;5.848;2023-08-08T14:15:46;2.53;;;0.20;;
42018;SDS011;27703;51.980;5.848;2023-08-08T14:18:13;2.58;;;0.20;;
42018;SDS011;27703;51.980;5.848;2023-08-08T14:20:39;1.65;;;0.20;;
42018;SDS011;27703;51.980;5.848;2023-08-08T14:23:05;0.52;;;0.10;;
42018;SDS011;27703;51.980;5.848;2023-08-08T14:25:31;1.65;;;0.10;;
42018;SDS011;27703;51.980;5.848;2023-08-08T14:27:57;0.30;;;0.10;;
42018;SDS011;27703;51.980;5.848;2023-08-08T14:30:23;1.17;;;0.10;;
42018;SDS011;27703;51.980;5.848;2023-08-08T14:32:52;0.50;;;0.20;;
42018;SDS011;27703;51.980;5.848;2023-08-08T14:35:18;1.38;;;0.10;;
42018;SDS011;27703;51.980;5.848;2023-08-08T14:37:44;0.60;;;0.03;;
42018;SDS011;27703;51.980;5.848;2023-08-08T14:40:09;1.15;;;0.15;;
42018;SDS011;27703;51.980;5.848;2023-08-08T14:42:35;2.75;;;0.20;;
42018;SDS011;27703;51.980;5.848;2023-08-08T14:45:01;0.40;;;0.10;;
42018;SDS011;27703;51.980;5.848;2023-08-08T14:47:26;1.35;;;0.10;;
42018;SDS011;27703;51.980;5.848;2023-08-08T14:49:52;1.38;;;0.10;;